Time;durP1;ratioP1;P1;durP2;ratioP2;P2;SDS_P1;SDS_P2;PMS_P1;PMS_P2;Temp;Humidity;BMP_temperature;BMP_pressure;BME280_temperature;BME280_humidity;BME280_pressure;Samples;Min_cycle;Max_cycle;Signal;HPM_P1;HPM_P2
2022/10/27 00:00:23;;;;;;;;;;;12.60;99.90;;;;;;5036411;28;19908;-76
2022/10/27 00:02:49;;;;;;;;;;;12.50;99.90;;;;;;5052596;28;19909;-79
2022/10/27 00:05:14;;;;;;;;;;;12.50;99.90;;;;;;5036312;28;19948;-77
2022/10/27 00:07:40;;;;;;;;;;;12.50;99.90;;;;;;5035525;28;19913;-77
2022/10/27 00:10:06;;;;;;;;;;;12.40;99.90;;;;;;5054006;28;19912;-76
2022/10/27 00:12:32;;;;;;;;;;;12.40;99.90;;;;;;5036522;28;19908;-76
2022/10/27 00:14:58;;;;;;;;;;;12.40;99.90;;;;;;5022462;28;20083;-77
2022/10/27 00:17:24;;;;;;;;;;;12.40;99.90;;;;;;5054027;28;20349;-77
2022/10/27 00:19:49;;;;;;;;;;;12.40;99.90;;;;;;5035551;28;20354;-77
2022/10/27 00:22:15;;;;;;;;;;;12.40;99.90;;;;;;5036147;28;19947;-77
2022/10/27 00:24:40;;;;;;;;;;;12.40;99.90;;;;;;5035568;28;19909;-78
2022/10/27 00:27:07;;;;;;;;;;;12.40;99.90;;;;;;5036153;28;19912;-77
2022/10/27 00:29:33;;;;;;;;;;;12.40;99.90;;;;;;5053395;28;19971;-77
2022/10/27 00:31:59;;;;;;;;;;;12.40;99.90;;;;;;5051680;28;20536;-78
2022/10/27 00:34:24;;;;;;;;;;;12.40;99.90;;;;;;5035552;28;19909;-77
2022/10/27 00:36:50;;;;;;;;;;;12.30;99.90;;;;;;5051833;28;20255;-78
2022/10/27 00:39:15;;;;;;;;;;;12.30;99.90;;;;;;5035349;28;20453;-77
2022/10/27 00:41:41;;;;;;;;;;;12.30;99.90;;;;;;5035125;28;19928;-76
2022/10/27 00:44:26;;;;;;;;;;;12.30;99.90;;;;;;5035653;28;19963;-77
2022/10/27 00:46:51;;;;;;;;;;;12.20;99.90;;;;;;5051659;28;19913;-77
2022/10/27 00:49:18;;;;;;;;;;;12.20;99.90;;;;;;5035521;28;20322;-77
2022/10/27 00:51:51;;;;;;;;;;;12.20;99.90;;;;;;5052615;28;19909;-77
2022/10/27 00:54:17;;;;;;;;;;;12.20;99.90;;;;;;5052171;28;19909;-78
2022/10/27 00:56:44;;;;;;;;;;;12.10;99.90;;;;;;5035216;28;19995;-76
2022/10/27 00:59:10;;;;;;;;;;;12.10;99.90;;;;;;5035578;28;19940;-77
2022/10/27 01:01:36;;;;;;;;;;;12.10;99.90;;;;;;5035317;28;20389;-77
2022/10/27 01:04:02;;;;;;;;;;;12.10;99.90;;;;;;5034813;28;19909;-78
2022/10/27 01:06:28;;;;;;;;;;;12.00;99.90;;;;;;5035450;28;19920;-77
2022/10/27 01:08:54;;;;;;;;;;;12.00;99.90;;;;;;5052552;28;19920;-78
2022/10/27 01:11:20;;;;;;;;;;;11.90;99.90;;;;;;5035026;28;20282;-77
2022/10/27 01:13:45;;;;;;;;;;;11.90;99.90;;;;;;5034740;28;19909;-77
2022/10/27 01:16:18;;;;;;;;;;;11.90;99.90;;;;;;5053301;28;19923;-76
2022/10/27 01:19:19;;;;;;;;;;;11.80;99.90;;;;;;5035035;28;19948;-77
2022/10/27 01:21:50;;;;;;;;;;;11.80;99.90;;;;;;4971477;28;20439;-77
2022/10/27 01:24:22;;;;;;;;;;;11.80;99.90;;;;;;5025013;28;19908;-76
2022/10/27 01:26:58;;;;;;;;;;;11.70;99.90;;;;;;5052439;28;19913;-77
2022/10/27 01:29:43;;;;;;;;;;;11.70;99.90;;;;;;5035051;28;19912;-78
2022/10/27 01:32:08;;;;;;;;;;;11.70;99.90;;;;;;5051293;28;19959;-76
2022/10/27 01:34:41;;;;;;;;;;;11.70;99.90;;;;;;5051871;28;19913;-78
2022/10/27 01:37:07;;;;;;;;;;;11.70;99.90;;;;;;5034437;28;20002;-77
2022/10/27 01:39:36;;;;;;;;;;;11.70;99.90;;;;;;5052558;28;20001;-77
2022/10/27 01:42:13;;;;;;;;;;;11.70;99.90;;;;;;5052209;28;19959;-76
2022/10/27 01:44:51;;;;;;;;;;;11.80;99.90;;;;;;5035036;28;19919;-77
2022/10/27 01:47:16;;;;;;;;;;;11.70;99.90;;;;;;5035022;28;19920;-77
2022/10/27 01:49:42;;;;;;;;;;;11.80;99.90;;;;;;5052985;28;20337;-77
2022/10/27 01:52:26;;;;;;;;;;;11.80;99.90;;;;;;5034381;28;19931;-77
2022/10/27 01:54:54;;;;;;;;;;;11.90;99.90;;;;;;5052352;28;19909;-76
2022/10/27 01:57:27;;;;;;;;;;;11.90;99.90;;;;;;5055404;28;19912;-76
2022/10/27 01:59:53;;;;;;;;;;;12.10;99.90;;;;;;5038235;28;20362;-76
2022/10/27 02:02:30;;;;;;;;;;;12.20;99.90;;;;;;5055276;28;19915;-77
2022/10/27 02:05:15;;;;;;;;;;;12.30;99.90;;;;;;5054791;28;20351;-76
2022/10/27 02:07:55;;;;;;;;;;;12.40;99.90;;;;;;5056313;28;19919;-76
2022/10/27 02:10:23;;;;;;;;;;;12.50;99.90;;;;;;5054966;28;19913;-75
2022/10/27 02:12:49;;;;;;;;;;;12.60;99.90;;;;;;5037874;28;19944;-76
2022/10/27 02:15:34;;;;;;;;;;;12.60;99.90;;;;;;5038100;28;19912;-76
2022/10/27 02:18:02;;;;;;;;;;;12.70;99.90;;;;;;5054514;28;19909;-77
2022/10/27 02:20:30;;;;;;;;;;;12.80;99.90;;;;;;5056249;28;19915;-77
2022/10/27 02:22:56;;;;;;;;;;;12.90;99.90;;;;;;5055302;28;20347;-78
2022/10/27 02:25:25;;;;;;;;;;;13.00;99.90;;;;;;5056154;28;19909;-76
2022/10/27 02:27:53;;;;;;;;;;;13.10;99.90;;;;;;5037737;28;19913;-77
2022/10/27 02:30:19;;;;;;;;;;;13.20;99.90;;;;;;5038441;28;20413;-76
2022/10/27 02:32:46;;;;;;;;;;;13.20;99.90;;;;;;5055619;28;20024;-77
2022/10/27 02:35:11;;;;;;;;;;;13.30;99.90;;;;;;5037485;28;19909;-76
2022/10/27 02:37:39;;;;;;;;;;;13.40;99.90;;;;;;5055733;28;19909;-77
2022/10/27 02:40:05;;;;;;;;;;;13.40;99.90;;;;;;5037432;28;20385;-76
2022/10/27 02:42:30;;;;;;;;;;;13.50;99.90;;;;;;5055430;28;20358;-76
2022/10/27 02:44:56;;;;;;;;;;;13.50;99.90;;;;;;5055235;28;19954;-77
2022/10/27 02:47:22;;;;;;;;;;;13.60;99.90;;;;;;5055276;28;19912;-76
2022/10/27 02:49:47;;;;;;;;;;;13.60;99.90;;;;;;5037561;28;19920;-77
2022/10/27 02:52:13;;;;;;;;;;;13.70;99.90;;;;;;5037121;28;19909;-77
2022/10/27 02:54:40;;;;;;;;;;;13.60;99.90;;;;;;5037832;28;19915;-77
2022/10/27 02:57:05;;;;;;;;;;;13.70;99.90;;;;;;5037191;28;19909;-75
2022/10/27 02:59:31;;;;;;;;;;;13.70;99.90;;;;;;5055231;28;19915;-78
2022/10/27 03:01:56;;;;;;;;;;;13.70;99.90;;;;;;5037205;28;19908;-76
2022/10/27 03:04:22;;;;;;;;;;;13.70;99.90;;;;;;5037783;28;19960;-76
2022/10/27 03:06:47;;;;;;;;;;;13.80;99.90;;;;;;5037503;28;20346;-77
2022/10/27 03:09:13;;;;;;;;;;;13.80;99.90;;;;;;5035866;28;19913;-78
2022/10/27 03:11:38;;;;;;;;;;;13.80;99.90;;;;;;5054891;28;19915;-78
2022/10/27 03:14:04;;;;;;;;;;;13.80;99.90;;;;;;5037137;28;20354;-77
2022/10/27 03:16:30;;;;;;;;;;;13.90;99.90;;;;;;5054222;28;19909;-78
2022/10/27 03:18:55;;;;;;;;;;;13.90;99.90;;;;;;5054606;28;20349;-78
2022/10/27 03:21:21;;;;;;;;;;;13.90;99.90;;;;;;5037235;28;19916;-78
2022/10/27 03:23:46;;;;;;;;;;;13.90;99.90;;;;;;5055113;28;19912;-76
2022/10/27 03:26:12;;;;;;;;;;;13.90;99.90;;;;;;5036471;28;19921;-77
2022/10/27 03:28:37;;;;;;;;;;;13.90;99.90;;;;;;5037247;28;19924;-78
2022/10/27 03:31:04;;;;;;;;;;;13.90;99.90;;;;;;5053164;28;19916;-77
2022/10/27 03:33:29;;;;;;;;;;;13.80;99.90;;;;;;5030442;28;19922;-78
2022/10/27 03:35:55;;;;;;;;;;;13.80;99.90;;;;;;4997333;28;19932;-78
2022/10/27 03:38:21;;;;;;;;;;;13.80;99.90;;;;;;5015006;28;19914;-78
2022/10/27 03:40:46;;;;;;;;;;;13.80;99.90;;;;;;5013902;28;19917;-78
2022/10/27 03:43:12;;;;;;;;;;;13.70;99.90;;;;;;5014281;28;19979;-79
2022/10/27 03:45:38;;;;;;;;;;;13.70;99.90;;;;;;5013782;28;20020;-77
2022/10/27 03:48:05;;;;;;;;;;;13.70;99.90;;;;;;5013176;28;20005;-79
2022/10/27 03:50:30;;;;;;;;;;;13.70;99.90;;;;;;5013426;28;19914;-78
2022/10/27 03:52:56;;;;;;;;;;;13.70;99.90;;;;;;5014433;28;19915;-78
2022/10/27 03:55:22;;;;;;;;;;;13.70;99.90;;;;;;5013676;28;19937;-78
2022/10/27 03:57:48;;;;;;;;;;;13.70;99.90;;;;;;5013773;28;19915;-78
2022/10/27 04:00:14;;;;;;;;;;;13.60;99.90;;;;;;5013917;28;19912;-78
2022/10/27 04:02:39;;;;;;;;;;;13.60;99.90;;;;;;5014769;28;19910;-77
2022/10/27 04:05:05;;;;;;;;;;;13.60;99.90;;;;;;5013898;28;19964;-77
2022/10/27 04:07:31;;;;;;;;;;;13.60;99.90;;;;;;5014612;28;19914;-76
2022/10/27 04:09:56;;;;;;;;;;;13.60;99.90;;;;;;5013810;28;19913;-77
2022/10/27 04:12:22;;;;;;;;;;;13.60;99.90;;;;;;5013088;28;20411;-78
2022/10/27 04:14:49;;;;;;;;;;;13.60;99.90;;;;;;5020542;28;20362;-77
2022/10/27 04:17:16;;;;;;;;;;;13.60;99.90;;;;;;5017435;28;19917;-77
2022/10/27 04:19:41;;;;;;;;;;;13.60;99.90;;;;;;5013881;28;20401;-77
2022/10/27 04:22:07;;;;;;;;;;;13.60;99.90;;;;;;5013649;28;19935;-77
2022/10/27 04:24:32;;;;;;;;;;;13.60;99.90;;;;;;5013248;28;19913;-77
2022/10/27 04:26:58;;;;;;;;;;;13.50;99.90;;;;;;5013561;28;20116;-77
2022/10/27 04:29:23;;;;;;;;;;;13.50;99.90;;;;;;5013015;28;19917;-75
2022/10/27 04:31:49;;;;;;;;;;;13.50;99.90;;;;;;5018398;28;20425;-75
2022/10/27 04:34:14;;;;;;;;;;;13.50;99.90;;;;;;5048509;28;20515;-76
2022/10/27 04:36:40;;;;;;;;;;;13.60;99.90;;;;;;5032273;28;19909;-78
2022/10/27 04:39:06;;;;;;;;;;;13.60;99.90;;;;;;5048507;28;19909;-77
2022/10/27 04:41:31;;;;;;;;;;;13.60;99.90;;;;;;5032092;28;19990;-77
2022/10/27 04:43:57;;;;;;;;;;;13.60;99.90;;;;;;5048606;28;19909;-78
2022/10/27 04:46:22;;;;;;;;;;;13.60;99.90;;;;;;5048892;28;20011;-79
2022/10/27 04:48:49;;;;;;;;;;;13.60;99.90;;;;;;5033289;28;19913;-80
2022/10/27 04:51:15;;;;;;;;;;;13.60;99.90;;;;;;5048160;28;19909;-81
2022/10/27 04:53:40;;;;;;;;;;;13.60;99.90;;;;;;5048816;28;19916;-79
2022/10/27 04:56:06;;;;;;;;;;;13.60;99.90;;;;;;5032798;28;19916;-79
2022/10/27 04:58:32;;;;;;;;;;;13.60;99.90;;;;;;5048756;28;20004;-77
2022/10/27 05:00:57;;;;;;;;;;;13.50;99.90;;;;;;5031757;28;20271;-77
2022/10/27 05:03:23;;;;;;;;;;;13.60;99.90;;;;;;5033267;28;19913;-77
2022/10/27 05:05:48;;;;;;;;;;;13.50;99.90;;;;;;5035888;28;19909;-76
2022/10/27 05:08:14;;;;;;;;;;;13.50;99.90;;;;;;5043121;28;20271;-78
2022/10/27 05:10:39;;;;;;;;;;;13.50;99.90;;;;;;5033667;28;19955;-76
2022/10/27 05:13:05;;;;;;;;;;;13.60;99.90;;;;;;5031228;28;19913;-77
2022/10/27 05:15:31;;;;;;;;;;;13.50;99.90;;;;;;5033123;28;19932;-76
2022/10/27 05:17:56;;;;;;;;;;;13.50;99.90;;;;;;5033472;28;20382;-77
2022/10/27 05:20:22;;;;;;;;;;;13.50;99.90;;;;;;5031243;28;20314;-75
2022/10/27 05:22:48;;;;;;;;;;;13.50;99.90;;;;;;5032713;28;19913;-75
2022/10/27 05:25:14;;;;;;;;;;;13.50;99.90;;;;;;5032246;28;19909;-76
2022/10/27 05:27:40;;;;;;;;;;;13.50;99.90;;;;;;5033446;28;19914;-77
2022/10/27 05:30:07;;;;;;;;;;;13.50;99.90;;;;;;5032236;28;20270;-78
2022/10/27 05:32:32;;;;;;;;;;;13.50;99.90;;;;;;5048101;28;19943;-77
2022/10/27 05:34:58;;;;;;;;;;;13.50;99.90;;;;;;5039021;28;20409;-77
2022/10/27 05:37:23;;;;;;;;;;;13.50;99.90;;;;;;5056686;28;19909;-76
2022/10/27 05:39:49;;;;;;;;;;;13.60;99.90;;;;;;5039350;28;19940;-77
2022/10/27 05:42:15;;;;;;;;;;;13.50;99.90;;;;;;5056075;28;19909;-77
2022/10/27 05:44:40;;;;;;;;;;;13.60;99.90;;;;;;5039172;28;20381;-77
2022/10/27 05:47:06;;;;;;;;;;;13.50;99.90;;;;;;5056160;28;19912;-77
2022/10/27 05:49:32;;;;;;;;;;;13.50;99.90;;;;;;5057368;28;20011;-77
2022/10/27 05:51:57;;;;;;;;;;;13.50;99.90;;;;;;5038805;28;20274;-77
2022/10/27 05:54:23;;;;;;;;;;;13.50;99.90;;;;;;5055027;28;19917;-78
2022/10/27 05:56:49;;;;;;;;;;;13.50;99.90;;;;;;5056500;28;19931;-77
2022/10/27 05:59:14;;;;;;;;;;;13.50;99.90;;;;;;5039464;28;19909;-77
2022/10/27 06:01:40;;;;;;;;;;;13.50;99.90;;;;;;5056253;28;19935;-78
2022/10/27 06:04:05;;;;;;;;;;;13.50;99.90;;;;;;5055641;28;20392;-77
2022/10/27 06:06:31;;;;;;;;;;;13.50;99.90;;;;;;5056104;28;20381;-76
2022/10/27 06:08:57;;;;;;;;;;;13.50;99.90;;;;;;5055060;28;19919;-77
2022/10/27 06:11:22;;;;;;;;;;;13.50;99.90;;;;;;5056174;28;19909;-77
2022/10/27 06:13:49;;;;;;;;;;;13.50;99.90;;;;;;5056191;28;19909;-77
2022/10/27 06:16:15;;;;;;;;;;;13.50;99.90;;;;;;5054265;28;19966;-76
2022/10/27 06:18:40;;;;;;;;;;;13.50;99.90;;;;;;5038260;28;19912;-77
2022/10/27 06:21:06;;;;;;;;;;;13.50;99.90;;;;;;5037900;28;19912;-76
2022/10/27 06:23:31;;;;;;;;;;;13.50;99.90;;;;;;5038397;28;20011;-77
2022/10/27 06:25:57;;;;;;;;;;;13.50;99.90;;;;;;5038205;28;19931;-77
2022/10/27 06:28:23;;;;;;;;;;;13.60;99.90;;;;;;5053980;28;19917;-77
2022/10/27 06:30:48;;;;;;;;;;;13.60;99.90;;;;;;5038194;28;20281;-76
2022/10/27 06:33:14;;;;;;;;;;;13.60;99.90;;;;;;5037486;28;19927;-77
2022/10/27 06:35:39;;;;;;;;;;;13.60;99.90;;;;;;5038241;28;19916;-77
2022/10/27 06:38:05;;;;;;;;;;;13.70;99.90;;;;;;5055581;28;19934;-77
2022/10/27 06:40:30;;;;;;;;;;;13.80;99.90;;;;;;5055580;28;19916;-76
2022/10/27 06:42:56;;;;;;;;;;;13.80;99.90;;;;;;5056282;28;19912;-75
2022/10/27 06:45:22;;;;;;;;;;;13.80;99.90;;;;;;5037236;28;19909;-77
2022/10/27 06:47:54;;;;;;;;;;;13.80;99.90;;;;;;5037716;28;20293;-77
2022/10/27 06:50:20;;;;;;;;;;;13.80;99.90;;;;;;5054735;28;20373;-77
2022/10/27 06:52:45;;;;;;;;;;;13.90;99.90;;;;;;5055403;28;19940;-77
2022/10/27 06:55:11;;;;;;;;;;;13.90;99.90;;;;;;5054629;28;19909;-77
2022/10/27 06:57:40;;;;;;;;;;;13.90;99.90;;;;;;5037788;28;19909;-77
2022/10/27 07:00:06;;;;;;;;;;;13.90;99.90;;;;;;5037146;28;19959;-78
2022/10/27 07:02:32;;;;;;;;;;;13.90;99.90;;;;;;5055922;28;19909;-76
2022/10/27 07:04:57;;;;;;;;;;;14.00;99.90;;;;;;5055292;28;20003;-76
2022/10/27 07:07:23;;;;;;;;;;;14.00;99.90;;;;;;5054419;28;19921;-76
2022/10/27 07:09:48;;;;;;;;;;;14.00;99.90;;;;;;5054960;28;19919;-76
2022/10/27 07:12:14;;;;;;;;;;;14.10;99.90;;;;;;5053095;28;19995;-75
2022/10/27 07:14:39;;;;;;;;;;;14.10;99.90;;;;;;5054317;28;19958;-76
2022/10/27 07:17:05;;;;;;;;;;;14.10;99.90;;;;;;5054559;28;20293;-76
2022/10/27 07:19:30;;;;;;;;;;;14.20;99.90;;;;;;5054241;28;19909;-77
2022/10/27 07:21:56;;;;;;;;;;;14.20;99.90;;;;;;5054785;28;19916;-76
2022/10/27 07:24:21;;;;;;;;;;;14.30;99.90;;;;;;5052676;28;20331;-75
2022/10/27 07:26:47;;;;;;;;;;;14.30;99.90;;;;;;5054563;28;20129;-75
2022/10/27 07:29:13;;;;;;;;;;;14.30;99.90;;;;;;5053623;28;19923;-77
2022/10/27 07:31:38;;;;;;;;;;;14.30;99.90;;;;;;5052924;28;20278;-77
2022/10/27 07:34:04;;;;;;;;;;;14.30;99.90;;;;;;5054659;28;19937;-75
2022/10/27 07:36:29;;;;;;;;;;;14.30;99.90;;;;;;5053752;28;20020;-75
2022/10/27 07:38:55;;;;;;;;;;;14.30;99.90;;;;;;5054253;28;20007;-76
2022/10/27 07:41:20;;;;;;;;;;;14.40;99.90;;;;;;5053665;28;19912;-76
2022/10/27 07:43:47;;;;;;;;;;;14.50;99.90;;;;;;5053895;28;20007;-76
2022/10/27 07:46:15;;;;;;;;;;;14.50;99.90;;;;;;5052930;28;20369;-77
2022/10/27 07:48:40;;;;;;;;;;;14.60;99.90;;;;;;5054985;28;19912;-75
2022/10/27 07:51:06;;;;;;;;;;;14.60;99.90;;;;;;5054101;28;19996;-76
2022/10/27 07:53:31;;;;;;;;;;;14.70;99.90;;;;;;5053182;28;19918;-76
2022/10/27 07:55:57;;;;;;;;;;;14.70;99.90;;;;;;5053713;28;19916;-77
2022/10/27 07:58:23;;;;;;;;;;;14.80;99.90;;;;;;5053447;28;19958;-77
2022/10/27 08:00:48;;;;;;;;;;;14.90;99.90;;;;;;5053877;28;19908;-76
2022/10/27 08:03:18;;;;;;;;;;;14.90;99.90;;;;;;5052909;28;20282;-77
2022/10/27 08:05:44;;;;;;;;;;;15.00;99.90;;;;;;5035891;28;19915;-75
2022/10/27 08:08:10;;;;;;;;;;;15.10;99.90;;;;;;5053534;28;19913;-76
2022/10/27 08:10:37;;;;;;;;;;;15.10;99.90;;;;;;5053126;28;19913;-77
2022/10/27 08:13:02;;;;;;;;;;;15.20;99.90;;;;;;5053827;28;20277;-77
2022/10/27 08:15:28;;;;;;;;;;;15.20;99.90;;;;;;5051537;28;19909;-76
2022/10/27 08:17:56;;;;;;;;;;;15.30;99.90;;;;;;5053395;28;19916;-76
2022/10/27 08:20:22;;;;;;;;;;;15.30;99.90;;;;;;5052918;28;19999;-76
2022/10/27 08:22:58;;;;;;;;;;;15.30;99.90;;;;;;5053301;28;19975;-77
2022/10/27 08:25:25;;;;;;;;;;;15.40;99.90;;;;;;5053239;28;19931;-76
2022/10/27 08:27:51;;;;;;;;;;;15.40;99.90;;;;;;5053240;28;19913;-76
2022/10/27 08:30:17;;;;;;;;;;;15.50;99.90;;;;;;5052588;28;19924;-76
2022/10/27 08:32:43;;;;;;;;;;;15.50;99.90;;;;;;5052665;28;20011;-75
2022/10/27 08:35:08;;;;;;;;;;;15.50;99.90;;;;;;5053262;28;20000;-75
2022/10/27 08:37:34;;;;;;;;;;;15.50;99.90;;;;;;5052500;28;19940;-75
2022/10/27 08:39:59;;;;;;;;;;;15.50;99.90;;;;;;5052984;28;19909;-75
2022/10/27 08:42:28;;;;;;;;;;;15.60;99.90;;;;;;5052916;28;20269;-75
2022/10/27 08:45:01;;;;;;;;;;;15.60;99.90;;;;;;5052617;28;19920;-76
2022/10/27 08:47:27;;;;;;;;;;;15.70;99.90;;;;;;5052212;28;19913;-76
2022/10/27 08:50:11;;;;;;;;;;;15.70;99.90;;;;;;5053144;28;19940;-76
2022/10/27 08:52:41;;;;;;;;;;;15.80;99.90;;;;;;5052362;28;20011;-76
2022/10/27 08:55:13;;;;;;;;;;;15.80;99.90;;;;;;5035193;28;19909;-75
2022/10/27 08:57:41;;;;;;;;;;;15.80;99.90;;;;;;5052502;28;20354;-76
2022/10/27 09:00:13;;;;;;;;;;;15.80;99.90;;;;;;5055552;28;19913;-75
2022/10/27 09:02:58;;;;;;;;;;;15.90;99.90;;;;;;5034578;28;19909;-75
2022/10/27 09:05:34;;;;;;;;;;;15.90;99.90;;;;;;5051258;28;19913;-76
2022/10/27 09:08:04;;;;;;;;;;;15.90;99.90;;;;;;5052783;28;19916;-75
2022/10/27 09:10:35;;;;;;;;;;;15.90;99.90;;;;;;5052364;28;19913;-75
2022/10/27 09:13:10;;;;;;;;;;;15.90;99.90;;;;;;5053199;28;19909;-75
2022/10/27 09:15:50;;;;;;;;;;;15.90;99.90;;;;;;5052077;28;20542;-75
2022/10/27 09:18:21;;;;;;;;;;;15.90;99.90;;;;;;5052077;28;20420;-75
2022/10/27 09:20:50;;;;;;;;;;;15.90;99.90;;;;;;5052520;28;19932;-76
2022/10/27 09:23:17;;;;;;;;;;;16.00;99.90;;;;;;5052666;28;19913;-76
2022/10/27 09:25:44;;;;;;;;;;;16.00;99.90;;;;;;5035403;28;20373;-77
2022/10/27 09:28:14;;;;;;;;;;;16.00;99.90;;;;;;5053161;28;19964;-77
2022/10/27 09:30:40;;;;;;;;;;;16.10;99.90;;;;;;5034599;28;19913;-76
2022/10/27 09:33:12;;;;;;;;;;;16.10;99.90;;;;;;5034726;28;19920;-77
2022/10/27 09:35:38;;;;;;;;;;;16.10;99.90;;;;;;5034296;28;20366;-78
2022/10/27 09:38:07;;;;;;;;;;;16.10;99.90;;;;;;5053220;28;20405;-76
2022/10/27 09:40:35;;;;;;;;;;;16.10;99.90;;;;;;5052335;28;20430;-77
2022/10/27 09:43:02;;;;;;;;;;;16.10;99.90;;;;;;5052895;28;19916;-76
2022/10/27 09:45:28;;;;;;;;;;;16.20;99.90;;;;;;5034397;28;19916;-76
2022/10/27 09:47:58;;;;;;;;;;;16.20;99.90;;;;;;5052227;28;19913;-76
2022/10/27 09:50:24;;;;;;;;;;;16.20;99.90;;;;;;5051838;28;19913;-76
2022/10/27 09:52:50;;;;;;;;;;;16.20;99.90;;;;;;5052900;28;20308;-76
2022/10/27 09:55:16;;;;;;;;;;;16.20;99.90;;;;;;5052530;28;19909;-76
2022/10/27 09:57:42;;;;;;;;;;;16.20;99.90;;;;;;5051876;28;19932;-75
2022/10/27 10:00:23;;;;;;;;;;;16.20;99.90;;;;;;5052596;28;19949;-78
2022/10/27 10:02:54;;;;;;;;;;;16.30;99.90;;;;;;5050551;28;20054;-77
2022/10/27 10:05:20;;;;;;;;;;;16.30;99.90;;;;;;5051881;28;19916;-77
2022/10/27 10:07:46;;;;;;;;;;;16.30;99.90;;;;;;5052197;28;19917;-76
2022/10/27 10:10:31;;;;;;;;;;;16.30;99.90;;;;;;5051564;28;20012;-77
2022/10/27 10:13:06;;;;;;;;;;;16.30;99.90;;;;;;5051347;28;19916;-76
2022/10/27 10:15:37;;;;;;;;;;;16.30;99.90;;;;;;5051100;28;20259;-76
2022/10/27 10:18:03;;;;;;;;;;;16.30;99.90;;;;;;5053752;28;19920;-76
2022/10/27 10:20:29;;;;;;;;;;;16.40;99.90;;;;;;5055254;28;19916;-77
2022/10/27 10:22:54;;;;;;;;;;;16.40;99.90;;;;;;5055439;28;20321;-76
2022/10/27 10:25:25;;;;;;;;;;;16.50;99.90;;;;;;5054862;28;20385;-76
2022/10/27 10:28:02;;;;;;;;;;;16.50;99.90;;;;;;5055093;28;19913;-76
2022/10/27 10:30:31;;;;;;;;;;;16.50;99.90;;;;;;5054210;28;20362;-75
2022/10/27 10:32:56;;;;;;;;;;;16.50;99.90;;;;;;5054399;28;20282;-76
2022/10/27 10:35:41;;;;;;;;;;;16.40;99.90;;;;;;5054625;28;19913;-76
2022/10/27 10:38:18;;;;;;;;;;;16.40;99.90;;;;;;5054831;28;19915;-75
2022/10/27 10:40:54;;;;;;;;;;;16.50;99.90;;;;;;5054709;28;19916;-76
2022/10/27 10:43:20;;;;;;;;;;;16.50;99.90;;;;;;5054346;28;19909;-75
2022/10/27 10:45:49;;;;;;;;;;;16.50;99.90;;;;;;5056231;28;19959;-76
2022/10/27 10:48:14;;;;;;;;;;;16.60;99.90;;;;;;5055184;28;19943;-77
2022/10/27 10:50:46;;;;;;;;;;;16.60;99.90;;;;;;5054647;28;19916;-77
2022/10/27 10:53:23;;;;;;;;;;;16.70;99.90;;;;;;5054578;28;19959;-76
2022/10/27 10:55:49;;;;;;;;;;;16.60;99.90;;;;;;5054594;28;19913;-77
2022/10/27 10:58:16;;;;;;;;;;;16.70;99.90;;;;;;5036829;28;20421;-77
2022/10/27 11:00:54;;;;;;;;;;;16.70;99.90;;;;;;5054609;28;19908;-75
2022/10/27 11:03:20;;;;;;;;;;;16.70;99.90;;;;;;5054790;28;19909;-76
2022/10/27 11:05:51;;;;;;;;;;;16.80;99.90;;;;;;5054572;28;19909;-78
2022/10/27 11:08:18;;;;;;;;;;;16.80;99.90;;;;;;5055596;28;19912;-77
2022/10/27 11:10:45;;;;;;;;;;;16.80;99.90;;;;;;5054981;28;19932;-77
2022/10/27 11:13:13;;;;;;;;;;;16.80;99.90;;;;;;5037411;28;19909;-76
2022/10/27 11:15:45;;;;;;;;;;;16.90;99.90;;;;;;5054409;28;20680;-77
2022/10/27 11:18:19;;;;;;;;;;;16.90;99.90;;;;;;5055094;28;19916;-78
2022/10/27 11:20:46;;;;;;;;;;;17.00;99.90;;;;;;5054480;28;19962;-76
2022/10/27 11:23:22;;;;;;;;;;;17.00;99.90;;;;;;5036812;28;19916;-76
2022/10/27 11:25:48;;;;;;;;;;;17.00;99.90;;;;;;5054697;28;20062;-77
2022/10/27 11:28:30;;;;;;;;;;;17.00;99.90;;;;;;5054149;28;20387;-76
2022/10/27 11:31:08;;;;;;;;;;;17.10;99.90;;;;;;5054997;28;20305;-75
2022/10/27 11:33:43;;;;;;;;;;;17.10;99.90;;;;;;5053250;28;19932;-76
2022/10/27 11:36:14;;;;;;;;;;;17.20;99.90;;;;;;5054471;28;19920;-75
2022/10/27 11:38:49;;;;;;;;;;;17.20;99.90;;;;;;5053842;28;19909;-75
2022/10/27 11:41:16;;;;;;;;;;;17.20;99.90;;;;;;5054533;28;19909;-76
2022/10/27 11:43:42;;;;;;;;;;;17.20;99.90;;;;;;5052543;28;20010;-76
2022/10/27 11:46:14;;;;;;;;;;;17.30;99.90;;;;;;5054257;28;19975;-77
2022/10/27 11:48:42;;;;;;;;;;;17.30;99.90;;;;;;5053552;28;20433;-77
2022/10/27 11:51:11;;;;;;;;;;;17.40;99.90;;;;;;5036531;28;19909;-77
2022/10/27 11:53:36;;;;;;;;;;;17.40;99.90;;;;;;5053549;28;19959;-77
2022/10/27 11:56:05;;;;;;;;;;;17.40;99.90;;;;;;5054019;28;20479;-77
2022/10/27 11:58:33;;;;;;;;;;;17.50;99.90;;;;;;5052460;28;19908;-77
2022/10/27 12:01:14;;;;;;;;;;;17.60;99.90;;;;;;5053171;28;19951;-76
2022/10/27 12:03:53;;;;;;;;;;;17.60;99.90;;;;;;5035836;28;20009;-77
2022/10/27 12:06:18;;;;;;;;;;;17.60;99.90;;;;;;5036267;28;19909;-77
2022/10/27 12:08:53;;;;;;;;;;;17.70;99.90;;;;;;5052570;28;19962;-78
2022/10/27 12:11:21;;;;;;;;;;;17.70;99.90;;;;;;5053989;28;19915;-77
2022/10/27 12:13:47;;;;;;;;;;;17.70;99.90;;;;;;5053055;28;19947;-77
2022/10/27 12:16:31;;;;;;;;;;;17.70;99.90;;;;;;5054329;28;20346;-77
2022/10/27 12:19:09;;;;;;;;;;;17.70;99.90;;;;;;5052489;28;19915;-76
2022/10/27 12:21:35;;;;;;;;;;;17.80;99.90;;;;;;5053450;28;20353;-77
2022/10/27 12:24:06;;;;;;;;;;;17.80;99.90;;;;;;5055337;28;19908;-78
2022/10/27 12:26:31;;;;;;;;;;;17.80;99.90;;;;;;5035173;28;20351;-76
2022/10/27 12:28:58;;;;;;;;;;;17.80;99.90;;;;;;5053136;28;19999;-75
2022/10/27 12:31:25;;;;;;;;;;;17.80;99.90;;;;;;5053707;28;19908;-76
2022/10/27 12:34:02;;;;;;;;;;;17.80;99.90;;;;;;5051684;28;19921;-76
2022/10/27 12:36:44;;;;;;;;;;;17.80;99.90;;;;;;5016641;28;20350;-76
2022/10/27 12:39:25;;;;;;;;;;;17.80;99.90;;;;;;5052532;28;19952;-75
2022/10/27 12:42:15;;;;;;;;;;;17.80;99.90;;;;;;5052544;28;19978;-75
2022/10/27 12:44:49;;;;;;;;;;;17.80;99.90;;;;;;5052383;28;19962;-76
2022/10/27 12:47:27;;;;;;;;;;;17.80;99.90;;;;;;5052975;28;20050;-76
2022/10/27 12:50:05;;;;;;;;;;;17.80;99.90;;;;;;5051581;28;19920;-76
2022/10/27 12:52:32;;;;;;;;;;;17.80;99.90;;;;;;5052398;28;19916;-76
2022/10/27 12:55:17;;;;;;;;;;;17.80;99.90;;;;;;5051674;28;20309;-75
2022/10/27 12:57:49;;;;;;;;;;;17.80;99.90;;;;;;5034602;28;20367;-76
2022/10/27 13:00:15;;;;;;;;;;;17.80;99.90;;;;;;5033070;28;19979;-76
2022/10/27 13:02:43;;;;;;;;;;;17.80;99.90;;;;;;5032010;28;19944;-76
2022/10/27 13:05:27;;;;;;;;;;;17.80;99.90;;;;;;5033261;28;19931;-77
2022/10/27 13:08:11;;;;;;;;;;;17.80;99.90;;;;;;5032399;28;19923;-77
2022/10/27 13:10:40;;;;;;;;;;;17.80;99.90;;;;;;5031301;28;19956;-78
2022/10/27 13:13:19;;;;;;;;;;;17.70;99.90;;;;;;5015261;28;20368;-76
2022/10/27 13:15:45;;;;;;;;;;;17.70;99.90;;;;;;5032549;28;19909;-76
2022/10/27 13:18:13;;;;;;;;;;;17.60;99.90;;;;;;5032632;28;19963;-75
2022/10/27 13:20:39;;;;;;;;;;;17.70;99.90;;;;;;5031788;28;19997;-76
2022/10/27 13:23:12;;;;;;;;;;;17.60;99.90;;;;;;5032801;28;19944;-77
2022/10/27 13:25:42;;;;;;;;;;;17.60;99.90;;;;;;5032400;28;19909;-77
2022/10/27 13:28:17;;;;;;;;;;;17.60;99.90;;;;;;5032748;28;19943;-77
2022/10/27 13:30:50;;;;;;;;;;;17.60;99.90;;;;;;5014025;28;19917;-75
2022/10/27 13:33:31;;;;;;;;;;;17.60;99.90;;;;;;5032569;28;19928;-76
2022/10/27 13:36:16;;;;;;;;;;;17.60;99.90;;;;;;5032534;28;19910;-76
2022/10/27 13:38:41;;;;;;;;;;;17.50;99.90;;;;;;5031744;28;19909;-77
2022/10/27 13:41:07;;;;;;;;;;;17.50;99.90;;;;;;5032001;28;19999;-77
2022/10/27 13:43:32;;;;;;;;;;;17.50;99.90;;;;;;5031718;28;20255;-77
2022/10/27 13:45:58;;;;;;;;;;;17.50;99.90;;;;;;5030322;28;19909;-76
2022/10/27 13:48:23;;;;;;;;;;;17.60;99.90;;;;;;5033383;28;19913;-76
2022/10/27 13:50:50;;;;;;;;;;;17.60;99.90;;;;;;5032902;28;20005;-76
2022/10/27 13:53:19;;;;;;;;;;;17.60;99.90;;;;;;5035123;28;19995;-77
2022/10/27 13:55:51;;;;;;;;;;;17.60;99.90;;;;;;5017951;28;19936;-77
2022/10/27 13:58:17;;;;;;;;;;;17.50;99.90;;;;;;5035922;28;20378;-77
2022/10/27 14:01:01;;;;;;;;;;;17.50;99.90;;;;;;5035677;28;19913;-78
2022/10/27 14:03:50;;;;;;;;;;;17.50;99.90;;;;;;5034043;28;19975;-76
2022/10/27 14:06:15;;;;;;;;;;;17.40;99.90;;;;;;5035370;28;20000;-76
2022/10/27 14:08:44;;;;;;;;;;;17.40;99.90;;;;;;5030508;28;20003;-75
2022/10/27 14:11:11;;;;;;;;;;;17.40;99.90;;;;;;5055616;28;19916;-76
2022/10/27 14:13:42;;;;;;;;;;;17.40;99.90;;;;;;5054834;28;20366;-77
2022/10/27 14:16:13;;;;;;;;;;;17.40;99.90;;;;;;5055609;28;20003;-76
2022/10/27 14:18:39;;;;;;;;;;;17.40;99.90;;;;;;5055130;28;20421;-77
2022/10/27 14:21:23;;;;;;;;;;;17.30;99.90;;;;;;5054720;28;19916;-78
2022/10/27 14:23:49;;;;;;;;;;;17.30;99.90;;;;;;5037574;28;19959;-76